Time;durP1;ratioP1;P1;durP2;ratioP2;P2;SDS_P1;SDS_P2;PMS_P1;PMS_P2;Temp;Humidity;BMP_temperature;BMP_pressure;BME280_temperature;BME280_humidity;BME280_pressure;Samples;Min_cycle;Max_cycle;Signal;HPM_P1;HPM_P2
2024/01/29 00:00:29;;;;;;;;;41.00;31.00;;;;;-143.90;100.00;78313.84;4869400;28;103009;-73
2024/01/29 00:02:55;;;;;;;;;42.00;35.67;;;;;-143.90;100.00;78322.09;4861521;28;104069;-73
2024/01/29 00:05:22;;;;;;;;;67.00;51.50;;;;;-143.90;100.00;78344.88;4852929;28;102648;-71
2024/01/29 00:07:48;;;;;;;;;79.75;56.50;;;;;-143.90;100.00;78355.22;4862693;28;102117;-72
2024/01/29 00:10:15;;;;;;;;;84.75;64.00;;;;;-143.90;100.00;78359.34;4861768;28;102551;-72
2024/01/29 00:12:42;;;;;;;;;82.00;63.75;;;;;-143.90;100.00;78373.84;4863603;28;104398;-72
2024/01/29 00:15:08;;;;;;;;;94.50;68.75;;;;;-143.90;100.00;78386.25;4852278;28;102986;-71
2024/01/29 00:17:35;;;;;;;;;85.00;63.50;;;;;-143.90;100.00;78382.09;4864406;28;103449;-72
2024/01/29 00:20:02;;;;;;;;;88.00;60.75;;;;;-143.90;100.00;78375.91;4866655;28;102266;-72
2024/01/29 00:22:29;;;;;;;;;76.50;54.50;;;;;-143.90;100.00;78367.63;4865728;28;103010;-72
2024/01/29 00:24:56;;;;;;;;;83.00;61.00;;;;;-143.90;100.00;78373.84;4862651;28;102334;-71
2024/01/29 00:27:23;;;;;;;;;79.25;61.50;;;;;-143.90;100.00;78384.19;4857808;28;102252;-71
2024/01/29 00:29:49;;;;;;;;;86.75;61.50;;;;;-143.90;100.00;78398.66;4863983;28;102006;-72
2024/01/29 00:32:16;;;;;;;;;94.25;71.25;;;;;-143.90;100.00;78406.94;4864802;28;109377;-72
2024/01/29 00:34:44;;;;;;;;;88.25;66.00;;;;;-143.90;100.00;78394.53;4869884;28;102526;-72
2024/01/29 00:37:10;;;;;;;;;93.00;65.00;;;;;-143.90;100.00;78388.31;4856334;28;102480;-71
2024/01/29 00:39:37;;;;;;;;;102.50;73.25;;;;;-143.90;100.00;78390.38;4864626;28;102225;-73
2024/01/29 00:42:05;;;;;;;;;91.25;67.50;;;;;-143.90;100.00;78392.44;4863301;28;104088;-72
2024/01/29 00:44:31;;;;;;;;;83.25;64.00;;;;;-143.90;100.00;78380.03;4865363;28;103167;-72
2024/01/29 00:46:58;;;;;;;;;78.00;62.00;;;;;-143.90;100.00;78384.19;4860550;28;102256;-73
2024/01/29 00:49:25;;;;;;;;;83.50;62.75;;;;;-143.90;100.00;78384.19;4858791;28;104735;-71
2024/01/29 00:51:52;;;;;;;;;83.00;61.00;;;;;-143.90;100.00;78386.25;4865735;28;104011;-72
2024/01/29 00:54:20;;;;;;;;;72.00;54.00;;;;;-143.90;100.00;78373.84;4864790;28;102453;-72
2024/01/29 00:56:47;;;;;;;;;70.50;53.25;;;;;-143.90;100.00;78363.50;4861901;28;102056;-72
2024/01/29 00:59:13;;;;;;;;;72.00;50.50;;;;;-143.90;100.00;78353.13;4855379;28;102090;-73
2024/01/29 01:01:40;;;;;;;;;67.50;54.00;;;;;-143.90;100.00;78369.69;4868829;28;104493;-73
2024/01/29 01:04:07;;;;;;;;;74.50;55.00;;;;;-143.90;100.00;78371.75;4864805;28;102547;-73
2024/01/29 01:06:34;;;;;;;;;85.75;64.00;;;;;-143.90;100.00;78386.25;4867442;28;101822;-73
2024/01/29 01:09:01;;;;;;;;;71.00;55.00;;;;;-143.90;100.00;78380.03;4860860;28;102729;-72
2024/01/29 01:11:27;;;;;;;;;72.00;54.75;;;;;-143.90;100.00;78386.25;4862325;28;104118;-73
2024/01/29 01:13:54;;;;;;;;;69.75;50.50;;;;;-143.90;100.00;78373.84;4863725;28;103788;-72
2024/01/29 01:16:20;;;;;;;;;63.75;51.50;;;;;-143.90;100.00;78361.41;4864768;28;102684;-73
2024/01/29 01:18:47;;;;;;;;;57.67;48.67;;;;;-143.90;100.00;78361.41;4868584;28;102151;-73
2024/01/29 01:21:15;;;;;;;;;63.33;47.33;;;;;-143.90;100.00;78363.50;4852730;28;103989;-73
2024/01/29 01:23:41;;;;;;;;;74.75;58.50;;;;;-143.90;100.00;78363.50;4860656;28;102507;-73
2024/01/29 01:26:08;;;;;;;;;74.75;59.50;;;;;-143.90;100.00;78353.13;4872285;28;102557;-73
2024/01/29 01:28:34;;;;;;;;;63.00;52.00;;;;;-143.90;100.00;78353.13;4866491;28;102047;-74
2024/01/29 01:31:01;;;;;;;;;70.00;54.25;;;;;-143.90;100.00;78357.28;4858599;28;104187;-73
2024/01/29 01:33:28;;;;;;;;;71.00;55.00;;;;;-143.90;100.00;78367.63;4856545;28;102315;-73
2024/01/29 01:35:54;;;;;;;;;50.25;43.00;;;;;-143.90;100.00;78365.56;4862589;28;103313;-73
2024/01/29 01:38:21;;;;;;;;;69.00;52.00;;;;;-143.90;100.00;78365.56;4864097;28;102949;-73
2024/01/29 01:40:48;;;;;;;;;76.50;56.75;;;;;-143.90;100.00;78373.84;4864878;28;104108;-74
2024/01/29 01:43:20;;;;;;;;;74.75;55.75;;;;;-143.90;100.00;78365.56;4853137;28;102148;-73
2024/01/29 01:46:06;;;;;;;;;74.00;56.75;;;;;-143.90;100.00;78367.63;4863495;28;102417;-74
2024/01/29 01:48:34;;;;;;;;;73.50;54.50;;;;;-143.90;100.00;78369.69;4860167;28;102575;-74
2024/01/29 01:51:02;;;;;;;;;66.33;51.00;;;;;-143.90;100.00;78353.13;4860486;28;104152;-74
2024/01/29 01:53:32;;;;;;;;;61.33;47.33;;;;;-143.90;100.00;78351.06;4857757;28;102616;-74
2024/01/29 01:56:00;;;;;;;;;36.00;30.00;;;;;-143.90;100.00;78340.72;4860320;28;102103;-73
2024/01/29 01:58:32;;;;;;;;;35.00;28.33;;;;;-143.90;100.00;78328.31;4864956;28;104228;-73
2024/01/29 02:00:59;;;;;;;;;34.00;28.00;;;;;-143.90;100.00;78322.09;4861367;28;104051;-73
2024/01/29 02:03:27;;;;;;;;;24.00;19.67;;;;;-143.90;100.00;78328.31;4852915;28;102702;-73
2024/01/29 02:05:54;;;;;;;;;23.67;14.33;;;;;-143.90;100.00;78324.19;4862366;28;102152;-73
2024/01/29 02:08:21;;;;;;;;;13.67;9.67;;;;;-143.90;100.00;78326.25;4866706;28;103836;-73
2024/01/29 02:10:50;;;;;;;;;12.33;11.00;;;;;-143.90;100.00;78330.38;4863042;28;104588;-72
2024/01/29 02:13:17;;;;;;;;;15.33;13.00;;;;;-143.90;100.00;78338.66;4853205;28;104519;-74
2024/01/29 02:15:44;;;;;;;;;10.00;8.00;;;;;-143.90;100.00;78334.53;4866821;28;102075;-74
2024/01/29 02:18:10;;;;;;;;;11.00;10.00;;;;;-143.90;100.00;78336.59;4857938;28;104497;-74
2024/01/29 02:20:37;;;;;;;;;13.00;11.00;;;;;-143.90;100.00;78338.66;4863581;28;104422;-74
2024/01/29 02:23:04;;;;;;;;;14.00;13.00;;;;;-143.90;100.00;78349.00;4855337;28;102963;-74
2024/01/29 02:25:30;;;;;;;;;17.00;14.00;;;;;-143.90;100.00;78353.13;4855324;28;103065;-74
2024/01/29 02:27:57;;;;;;;;;14.67;11.67;;;;;-143.90;100.00;78353.13;4865617;28;102039;-74
2024/01/29 02:30:24;;;;;;;;;15.33;10.00;;;;;-143.90;100.00;78355.22;4860265;28;103978;-74
2024/01/29 02:32:50;;;;;;;;;8.67;5.67;;;;;-143.90;100.00;78353.13;4862446;28;104725;-74
2024/01/29 02:35:18;;;;;;;;;11.00;7.00;;;;;-143.90;100.00;78357.28;4848862;28;102499;-73
2024/01/29 02:37:44;;;;;;;;;8.67;7.67;;;;;-143.90;100.00;78361.41;4861878;28;102485;-74
2024/01/29 02:40:11;;;;;;;;;22.33;17.00;;;;;-143.90;100.00;78371.75;4866212;28;104929;-74
2024/01/29 02:42:40;;;;;;;;;28.67;22.00;;;;;-143.90;100.00;78365.56;4863463;28;102471;-74
2024/01/29 02:45:07;;;;;;;;;23.33;20.00;;;;;-143.90;100.00;78361.41;4853409;28;102704;-73
2024/01/29 02:47:34;;;;;;;;;28.67;21.00;;;;;-143.90;100.00;78371.75;4853220;28;102132;-73
2024/01/29 02:50:01;;;;;;;;;42.67;34.67;;;;;-143.90;100.00;78398.66;4860757;28;104024;-74
2024/01/29 02:52:28;;;;;;;;;73.75;57.75;;;;;-143.90;100.00;78406.94;4863657;28;102847;-73
2024/01/29 02:54:54;;;;;;;;;94.25;70.50;;;;;-143.90;100.00;78415.22;4862642;28;102290;-73
2024/01/29 02:57:23;;;;;;;;;83.00;60.25;;;;;-143.90;100.00;78415.22;4856827;28;102704;-72
2024/01/29 02:59:51;;;;;;;;;74.50;52.00;;;;;-143.90;100.00;78402.81;4867855;28;108697;-73
2024/01/29 03:02:18;;;;;;;;;71.50;52.00;;;;;-143.90;100.00;78400.72;4870303;28;104360;-73
2024/01/29 03:04:44;;;;;;;;;72.75;54.00;;;;;-143.90;100.00;78394.53;4864548;28;102130;-74
2024/01/29 03:07:11;;;;;;;;;73.25;56.25;;;;;-143.90;100.00;78406.94;4855534;28;102516;-73
2024/01/29 03:09:38;;;;;;;;;64.25;47.50;;;;;-143.90;100.00;78411.06;4867538;28;104314;-73
2024/01/29 03:12:05;;;;;;;;;51.00;45.00;;;;;-143.90;100.00;78411.06;4859277;28;102369;-74
2024/01/29 03:14:31;;;;;;;;;57.67;45.00;;;;;-143.90;100.00;78404.88;4864041;28;102509;-73
2024/01/29 03:16:58;;;;;;;;;39.33;28.67;;;;;-143.90;100.00;78400.72;4870061;28;102296;-73
2024/01/29 03:19:24;;;;;;;;;62.75;45.00;;;;;-143.90;100.00;78417.28;4853948;28;103912;-73
2024/01/29 03:21:51;;;;;;;;;74.00;56.00;;;;;-143.90;100.00;78423.50;4865482;28;102510;-72
2024/01/29 03:24:18;;;;;;;;;76.75;58.25;;;;;-143.90;100.00;78415.22;4867352;28;102254;-73
2024/01/29 03:26:44;;;;;;;;;73.25;55.50;;;;;-143.90;100.00;78396.59;4867761;28;102244;-74
2024/01/29 03:29:11;;;;;;;;;77.00;56.00;;;;;-143.90;100.00;78380.03;4859724;28;104706;-72
2024/01/29 03:31:38;;;;;;;;;62.00;47.25;;;;;-143.90;100.00;78371.75;4869599;28;102766;-72
2024/01/29 03:34:04;;;;;;;;;49.00;43.00;;;;;-143.90;100.00;78353.13;4866538;28;102249;-73
2024/01/29 03:36:31;;;;;;;;;39.67;31.33;;;;;-143.90;100.00;78344.88;4863554;28;102432;-73
2024/01/29 03:38:58;;;;;;;;;42.67;33.33;;;;;-143.90;100.00;78336.59;4873340;28;104159;-73
2024/01/29 03:41:24;;;;;;;;;31.00;20.67;;;;;-143.90;100.00;78330.38;4852110;28;102322;-73
2024/01/29 03:43:51;;;;;;;;;26.00;17.00;;;;;-143.90;100.00;78317.97;4864815;28;101954;-72
2024/01/29 03:46:17;;;;;;;;;21.00;16.33;;;;;-143.90;100.00;78307.63;4863588;28;102356;-74
2024/01/29 03:48:44;;;;;;;;;16.67;13.33;;;;;-143.90;100.00;78303.47;4863626;28;104226;-73
2024/01/29 03:51:11;;;;;;;;;10.33;10.00;;;;;-143.90;100.00;78303.47;4850870;28;104000;-70
2024/01/29 03:53:37;;;;;;;;;18.67;15.00;;;;;-143.90;100.00;78295.22;4865660;28;102437;-71
2024/01/29 03:56:04;;;;;;;;;27.00;20.67;;;;;-143.90;100.00;78286.94;4869406;28;102451;-73
2024/01/29 03:58:31;;;;;;;;;14.67;7.00;;;;;-143.90;100.00;78280.72;4865816;28;104251;-72
2024/01/29 04:00:58;;;;;;;;;53.67;42.67;;;;;-143.90;100.00;78278.66;4866730;28;102558;-72
2024/01/29 04:03:25;;;;;;;;;49.00;41.00;;;;;-143.90;100.00;78270.38;4861847;28;103596;-73
2024/01/29 04:05:51;;;;;;;;;54.00;46.00;;;;;-143.90;100.00;78278.66;4866789;28;102829;-72
2024/01/29 04:08:18;;;;;;;;;53.33;43.67;;;;;-143.90;100.00;78272.44;4866188;28;108510;-71
2024/01/29 04:10:45;;;;;;;;;45.00;39.67;;;;;-143.90;100.00;78278.66;4863630;28;102523;-73
2024/01/29 04:13:11;;;;;;;;;38.67;33.00;;;;;-143.90;100.00;78266.25;4859131;28;102268;-71
2024/01/29 04:15:38;;;;;;;;;36.33;30.00;;;;;-143.90;100.00;78274.53;4870478;28;102074;-73
2024/01/29 04:18:05;;;;;;;;;24.67;16.67;;;;;-143.90;100.00;78272.44;4862842;28;104093;-72
2024/01/29 04:20:31;;;;;;;;;24.00;20.67;;;;;-143.90;100.00;78278.66;4868813;28;102474;-72
2024/01/29 04:22:58;;;;;;;;;19.67;17.00;;;;;-143.90;100.00;78270.38;4863057;28;102391;-72
2024/01/29 04:25:25;;;;;;;;;16.33;12.00;;;;;-143.90;100.00;78282.78;4852931;28;102035;-71
2024/01/29 04:27:51;;;;;;;;;30.00;26.00;;;;;-143.90;100.00;78299.34;4869627;28;104190;-71
2024/01/29 04:30:18;;;;;;;;;24.33;22.00;;;;;-143.90;100.00;78299.34;4862099;28;102431;-73
2024/01/29 04:32:45;;;;;;;;;27.33;16.67;;;;;-143.90;100.00;78301.41;4857277;28;103083;-72
2024/01/29 04:35:12;;;;;;;;;28.00;21.67;;;;;-143.90;100.00;78320.03;4849499;28;105430;-70
2024/01/29 04:37:40;;;;;;;;;33.67;24.00;;;;;-143.90;100.00;78328.31;4859529;28;104971;-73
2024/01/29 04:40:07;;;;;;;;;38.33;33.67;;;;;-143.90;100.00;78334.53;4863282;28;103568;-72
2024/01/29 04:42:34;;;;;;;;;41.67;33.67;;;;;-143.90;100.00;78340.72;4866443;28;101997;-73
2024/01/29 04:45:00;;;;;;;;;42.67;35.33;;;;;-143.90;100.00;78344.88;4858588;28;102337;-73
2024/01/29 04:47:27;;;;;;;;;42.00;32.00;;;;;-143.90;100.00;78353.13;4849329;28;104192;-72
2024/01/29 04:49:54;;;;;;;;;44.00;34.33;;;;;-143.90;100.00;78344.88;4856805;28;104236;-72
2024/01/29 04:52:21;;;;;;;;;28.33;24.00;;;;;-143.90;100.00;78334.53;4841975;28;102312;-73
2024/01/29 04:54:47;;;;;;;;;26.67;22.33;;;;;-143.90;100.00;78332.44;4832737;28;102503;-72
2024/01/29 04:57:14;;;;;;;;;20.67;18.00;;;;;-143.90;100.00;78332.44;4817538;28;104171;-71
2024/01/29 04:59:41;;;;;;;;;21.33;18.67;;;;;-143.90;100.00;78330.38;4839187;28;104278;-73
2024/01/29 05:02:10;;;;;;;;;28.33;17.00;;;;;-143.90;100.00;78338.66;4833488;28;102067;-73
2024/01/29 05:04:36;;;;;;;;;13.67;10.67;;;;;-143.90;100.00;78346.94;4835271;28;102872;-73
2024/01/29 05:07:03;;;;;;;;;19.67;10.33;;;;;-143.90;100.00;78353.13;4838439;28;104053;-73
2024/01/29 05:09:30;;;;;;;;;15.33;11.00;;;;;-143.90;100.00;78349.00;4818497;28;102684;-72
2024/01/29 05:11:57;;;;;;;;;10.00;8.67;;;;;-143.90;100.00;78353.13;4835448;28;101949;-71
2024/01/29 05:14:26;;;;;;;;;12.67;8.67;;;;;-143.90;100.00;78353.13;4840007;28;102116;-73
2024/01/29 05:16:53;;;;;;;;;15.33;12.33;;;;;-143.90;100.00;78355.22;4840519;28;108701;-72
2024/01/29 05:19:20;;;;;;;;;8.00;7.00;;;;;-143.90;100.00;78357.28;4826337;28;102940;-73
2024/01/29 05:21:47;;;;;;;;;13.67;9.33;;;;;-143.90;100.00;78361.41;4836015;28;104115;-73
2024/01/29 05:24:16;;;;;;;;;18.67;16.00;;;;;-143.90;100.00;78377.97;4838608;28;102594;-73
2024/01/29 05:26:42;;;;;;;;;21.00;20.33;;;;;-143.90;100.00;78402.81;4839377;28;104019;-73
2024/01/29 05:29:09;;;;;;;;;24.33;21.67;;;;;-143.90;100.00;78402.81;4828599;28;102476;-73
2024/01/29 05:31:35;;;;;;;;;19.67;13.00;;;;;-143.90;100.00;78394.53;4831565;28;102603;-73
2024/01/29 05:34:02;;;;;;;;;9.33;8.00;;;;;-143.90;100.00;78394.53;4841869;28;102373;-73
2024/01/29 05:36:29;;;;;;;;;16.33;13.67;;;;;-143.90;100.00;78402.81;4832185;28;104291;-72
2024/01/29 05:38:56;;;;;;;;;19.33;13.33;;;;;-143.90;100.00;78409.00;4837960;28;102452;-71
2024/01/29 05:41:22;;;;;;;;;21.00;18.00;;;;;-143.90;100.00;78402.81;4827365;28;102554;-73
2024/01/29 05:43:49;;;;;;;;;17.00;13.00;;;;;-143.90;100.00;78400.72;4839594;28;102458;-73
2024/01/29 05:46:15;;;;;;;;;13.00;11.00;;;;;-143.90;100.00;78398.66;4827206;28;104047;-73
2024/01/29 05:48:42;;;;;;;;;12.00;11.33;;;;;-143.90;100.00;78402.81;4835503;28;101971;-73
2024/01/29 05:51:09;;;;;;;;;10.67;9.00;;;;;-143.90;100.00;78409.00;4822868;28;104531;-73
2024/01/29 05:53:36;;;;;;;;;10.33;8.00;;;;;-143.90;100.00;78406.94;4825554;28;103045;-72
2024/01/29 05:56:05;;;;;;;;;13.00;10.33;;;;;-143.90;100.00;78415.22;4834556;28;103929;-73
2024/01/29 05:58:34;;;;;;;;;6.67;6.67;;;;;-143.90;100.00;78411.06;4835670;28;102616;-72
2024/01/29 06:01:01;;;;;;;;;7.00;5.00;;;;;-143.90;100.00;78419.34;4836268;28;102383;-73
2024/01/29 06:03:28;;;;;;;;;5.00;4.33;;;;;-143.90;100.00;78413.16;4829705;28;103251;-72
2024/01/29 06:05:55;;;;;;;;;7.33;4.00;;;;;-143.90;100.00;78421.41;4841441;28;106085;-72
2024/01/29 06:08:21;;;;;;;;;4.67;4.67;;;;;-143.90;100.00;78419.34;4840869;28;102400;-72
2024/01/29 06:10:48;;;;;;;;;14.33;11.67;;;;;-143.90;100.00;78423.50;4840652;28;102228;-72
2024/01/29 06:13:18;;;;;;;;;14.33;13.33;;;;;-143.90;100.00;78423.50;4837689;28;103032;-73
2024/01/29 06:15:45;;;;;;;;;16.00;10.67;;;;;-143.90;100.00;78419.34;4828997;28;104325;-73
2024/01/29 06:18:11;;;;;;;;;12.67;12.00;;;;;-143.90;100.00;78415.22;4840071;28;102701;-72
2024/01/29 06:20:38;;;;;;;;;12.67;10.67;;;;;-143.90;100.00;78421.41;4848180;28;103124;-72
2024/01/29 06:23:06;;;;;;;;;5.00;5.00;;;;;-143.90;100.00;78411.06;4842899;28;102311;-72
2024/01/29 06:25:33;;;;;;;;;16.33;13.00;;;;;-143.90;100.00;78409.00;4827802;28;104037;-72
2024/01/29 06:27:59;;;;;;;;;7.00;7.00;;;;;-143.90;100.00;78409.00;4855786;28;103353;-71
2024/01/29 06:30:26;;;;;;;;;14.00;13.33;;;;;-143.90;100.00;78413.16;4855834;28;104338;-71
2024/01/29 06:32:53;;;;;;;;;8.00;7.00;;;;;-143.90;100.00;78409.00;4860126;28;105489;-71
2024/01/29 06:35:22;;;;;;;;;4.00;4.00;;;;;-143.90;100.00;78406.94;4843708;28;104155;-71
2024/01/29 06:37:48;;;;;;;;;7.00;4.00;;;;;-143.90;100.00;78409.00;4857523;28;102094;-71
2024/01/29 06:40:15;;;;;;;;;4.67;4.67;;;;;-143.90;100.00;78406.94;4855849;28;102648;-71
2024/01/29 06:42:42;;;;;;;;;11.00;7.33;;;;;-143.90;100.00;78404.88;4857058;28;102494;-71
2024/01/29 06:45:08;;;;;;;;;8.00;5.33;;;;;-143.90;100.00;78415.22;4848709;28;104149;-72
2024/01/29 06:47:35;;;;;;;;;7.67;6.33;;;;;-143.90;100.00;78409.00;4853459;28;103136;-71
2024/01/29 06:50:02;;;;;;;;;5.67;5.00;;;;;-143.90;100.00;78413.16;4846685;28;101973;-71
2024/01/29 06:52:29;;;;;;;;;10.67;7.67;;;;;-143.90;100.00;78411.06;4847709;28;102297;-71
2024/01/29 06:54:55;;;;;;;;;18.33;11.33;;;;;-143.90;100.00;78415.22;4847297;28;105027;-71
2024/01/29 06:57:22;;;;;;;;;26.33;17.00;;;;;-143.90;100.00;78425.56;4835431;28;105501;-71
2024/01/29 06:59:49;;;;;;;;;29.33;26.33;;;;;-143.90;100.00;78419.34;4847227;28;102001;-71
2024/01/29 07:02:16;;;;;;;;;30.33;25.00;;;;;-143.90;100.00;78400.72;4847648;28;102008;-71
2024/01/29 07:04:42;;;;;;;;;30.67;26.00;;;;;-143.90;100.00;78394.53;4844713;28;104657;-71
2024/01/29 07:07:09;;;;;;;;;28.00;25.00;;;;;-143.90;100.00;78390.38;4836430;28;102954;-72
2024/01/29 07:09:36;;;;;;;;;36.67;29.67;;;;;-143.90;100.00;78382.09;4843124;28;101998;-71
2024/01/29 07:12:04;;;;;;;;;49.00;40.33;;;;;-143.90;100.00;78386.25;4848537;28;102249;-71
2024/01/29 07:14:31;;;;;;;;;51.33;41.00;;;;;-143.90;100.00;78377.97;4846430;28;104092;-70
2024/01/29 07:16:58;;;;;;;;;51.00;41.33;;;;;-143.90;100.00;78375.91;4853958;28;102523;-69
2024/01/29 07:19:33;;;;;;;;;59.33;41.00;;;;;-143.90;100.00;78365.56;4837592;28;102386;-71
2024/01/29 07:22:04;;;;;;;;;35.00;27.67;;;;;-143.90;100.00;78361.41;4845978;28;102354;-71
2024/01/29 07:24:32;;;;;;;;;40.00;32.33;;;;;-143.90;100.00;78357.28;4846536;28;103984;-71
2024/01/29 07:26:59;;;;;;;;;39.00;32.33;;;;;-143.90;100.00;78346.94;4850155;28;102158;-72
2024/01/29 07:29:31;;;;;;;;;33.00;27.67;;;;;-143.90;100.00;78336.59;4840359;28;105177;-71
2024/01/29 07:31:58;;;;;;;;;30.33;24.00;;;;;-143.90;100.00;78340.72;4847636;28;102720;-69
2024/01/29 07:34:25;;;;;;;;;49.00;41.00;;;;;-143.90;100.00;78344.88;4852053;28;104007;-72
2024/01/29 07:36:52;;;;;;;;;73.25;55.75;;;;;-143.90;100.00;78342.78;4852931;28;102502;-70
2024/01/29 07:39:18;;;;;;;;;70.25;54.00;;;;;-143.90;100.00;78338.66;4837383;28;102297;-70
2024/01/29 07:41:46;;;;;;;;;72.50;58.75;;;;;-143.90;100.00;78328.31;4849376;28;102188;-69
2024/01/29 07:44:13;;;;;;;;;58.00;43.25;;;;;-143.90;100.00;78309.69;4845496;28;104024;-70
2024/01/29 07:46:39;;;;;;;;;71.25;52.00;;;;;-143.90;100.00;78295.22;4848509;28;102400;-70
2024/01/29 07:49:07;;;;;;;;;57.33;43.00;;;;;-143.90;100.00;78278.66;4841678;28;102062;-70
2024/01/29 07:51:34;;;;;;;;;58.00;46.67;;;;;-143.90;100.00;78272.44;4845333;28;102086;-71
2024/01/29 07:54:01;;;;;;;;;48.67;42.00;;;;;-143.90;100.00;78262.09;4829307;28;106270;-71
2024/01/29 07:56:28;;;;;;;;;50.00;36.33;;;;;-143.90;100.00;78253.81;4836378;28;102491;-70
2024/01/29 07:58:54;;;;;;;;;47.00;41.67;;;;;-143.90;100.00;78241.41;4849552;28;102562;-71
2024/01/29 08:01:22;;;;;;;;;32.67;29.67;;;;;-143.90;100.00;78229.00;4833819;28;102073;-71
2024/01/29 08:03:49;;;;;;;;;28.67;22.00;;;;;-143.90;100.00;78216.59;4846207;28;104182;-71
2024/01/29 08:06:16;;;;;;;;;35.33;27.33;;;;;-143.90;100.00;78193.81;4843615;28;102512;-71
2024/01/29 08:08:43;;;;;;;;;26.33;23.00;;;;;-143.90;100.00;78175.22;4849224;28;101968;-71
2024/01/29 08:11:09;;;;;;;;;55.33;43.00;;;;;-143.90;100.00;78162.78;4839579;28;102439;-72
2024/01/29 08:13:38;;;;;;;;;46.00;38.33;;;;;-143.90;100.00;78152.44;4844644;28;106031;-71
2024/01/29 08:16:05;;;;;;;;;45.00;39.67;;;;;-143.90;100.00;78146.25;4845490;28;102661;-72
2024/01/29 08:18:32;;;;;;;;;48.00;35.00;;;;;-143.90;100.00;78121.41;4850954;28;103547;-72
2024/01/29 08:20:59;;;;;;;;;44.00;38.33;;;;;-143.90;100.00;78104.88;4848317;28;102718;-71
2024/01/29 08:23:26;;;;;;;;;12.00;11.00;;;;;-143.90;100.00;78094.53;4840446;28;103976;-72
2024/01/29 08:25:53;;;;;;;;;33.33;26.00;;;;;-143.90;100.00;78075.91;4846792;28;102110;-72
2024/01/29 08:28:20;;;;;;;;;51.33;38.33;;;;;-143.90;100.00;78075.91;4845787;28;102369;-72
2024/01/29 08:30:46;;;;;;;;;42.67;32.67;;;;;-143.90;100.00;78063.47;4844933;28;102062;-72
2024/01/29 08:33:13;;;;;;;;;39.00;35.00;;;;;-143.90;100.00;78042.78;4824740;28;104376;-71
2024/01/29 08:35:40;;;;;;;;;47.00;39.00;;;;;-143.90;100.00;78040.72;4847077;28;102776;-72
2024/01/29 08:38:06;;;;;;;;;44.00;30.67;;;;;-143.90;100.00;78017.97;4846984;28;102676;-72
2024/01/29 08:40:35;;;;;;;;;37.00;32.33;;;;;-143.90;100.00;77993.16;4845711;28;102230;-72
2024/01/29 08:43:01;;;;;;;;;22.33;20.67;;;;;-143.90;100.00;77980.72;4842254;28;104085;-72
2024/01/29 08:45:28;;;;;;;;;38.67;29.33;;;;;-143.90;100.00;77964.19;4837900;28;102209;-71
2024/01/29 08:47:55;;;;;;;;;36.67;26.33;;;;;-143.90;100.00;77953.84;4846743;28;101999;-73
2024/01/29 08:50:22;;;;;;;;;31.67;27.33;;;;;-143.90;100.00;77947.63;4848307;28;102466;-73
2024/01/29 08:52:48;;;;;;;;;28.00;22.00;;;;;-143.90;100.00;77939.34;4846473;28;104615;-72
2024/01/29 08:55:15;;;;;;;;;37.00;27.67;;;;;-143.90;100.00;77922.81;4834247;28;102255;-70
2024/01/29 08:57:41;;;;;;;;;31.00;24.33;;;;;-143.90;100.00;77914.53;4841992;28;103084;-71
2024/01/29 09:00:09;;;;;;;;;22.00;20.00;;;;;-143.90;100.00;77897.97;4844862;28;102900;-73
2024/01/29 09:02:37;;;;;;;;;35.00;29.33;;;;;-143.90;100.00;77893.84;4844810;28;104190;-71
2024/01/29 09:05:04;;;;;;;;;33.00;23.67;;;;;-143.90;100.00;77881.44;4846567;28;102380;-72
2024/01/29 09:07:31;;;;;;;;;32.67;26.33;;;;;-143.90;100.00;77877.28;4839538;28;102460;-72
2024/01/29 09:09:57;;;;;;;;;55.00;40.33;;;;;-143.90;100.00;77889.69;4845717;28;102587;-71
2024/01/29 09:12:24;;;;;;;;;58.33;43.67;;;;;-143.90;100.00;77881.44;4845462;28;104172;-72
2024/01/29 09:14:51;;;;;;;;;52.33;40.00;;;;;-143.90;100.00;77864.88;4847243;28;102430;-72
2024/01/29 09:17:17;;;;;;;;;37.33;29.00;;;;;-143.90;100.00;77852.47;4829069;28;102443;-72
2024/01/29 09:19:45;;;;;;;;;44.67;33.00;;;;;-143.90;100.00;77842.13;4848176;28;102518;-72
2024/01/29 09:22:12;;;;;;;;;41.00;33.67;;;;;-143.90;100.00;77835.91;4845457;28;104124;-72
2024/01/29 09:24:39;;;;;;;;;34.67;31.67;;;;;-143.90;100.00;77829.72;4848431;28;104352;-71
2024/01/29 09:27:06;;;;;;;;;37.33;30.00;;;;;-143.90;100.00;77817.28;4839974;28;102645;-72
2024/01/29 09:29:33;;;;;;;;;32.00;28.67;;;;;-143.90;100.00;77802.81;4840355;28;105082;-72
2024/01/29 09:31:59;;;;;;;;;40.00;28.50;;;;;-143.90;100.00;77792.47;4843561;28;104213;-72
2024/01/29 09:34:27;;;;;;;;;38.67;31.67;;;;;-143.90;100.00;77778.00;4845760;28;102244;-72
2024/01/29 09:36:54;;;;;;;;;42.33;33.00;;;;;-143.90;100.00;77765.56;4846625;28;102029;-72
2024/01/29 09:39:23;;;;;;;;;50.33;37.00;;;;;-143.90;100.00;77769.72;4834333;28;102408;-71
2024/01/29 09:41:52;;;;;;;;;46.67;36.67;;;;;-143.90;100.00;77761.44;4839031;28;104300;-72
2024/01/29 09:44:18;;;;;;;;;35.00;33.00;;;;;-143.90;100.00;77738.69;4848845;28;102175;-72
2024/01/29 09:46:47;;;;;;;;;41.33;32.67;;;;;-143.90;100.00;77734.53;4844109;28;102458;-72
2024/01/29 09:49:15;;;;;;;;;44.00;34.50;;;;;-143.90;100.00;77720.06;4832292;28;102570;-72
2024/01/29 09:51:45;;;;;;;;;40.25;30.75;;;;;-143.90;100.00;77707.66;4809391;28;1113342;-72
2024/01/29 09:54:12;;;;;;;;;39.00;34.00;;;;;-143.90;100.00;77699.38;4842392;28;102935;-72
2024/01/29 09:56:39;;;;;;;;;38.00;32.67;;;;;-143.90;100.00;77682.81;4844098;28;102607;-72
2024/01/29 09:59:06;;;;;;;;;33.00;25.33;;;;;-143.90;100.00;77670.41;4847125;28;102750;-72
2024/01/29 10:01:33;;;;;;;;;34.00;32.33;;;;;-143.90;100.00;77651.81;4841221;28;104466;-73
2024/01/29 10:04:00;;;;;;;;;34.00;32.00;;;;;-143.90;100.00;77653.88;4845609;28;102437;-72
2024/01/29 10:06:27;;;;;;;;;57.67;45.00;;;;;-143.90;100.00;77641.47;4846253;28;102467;-71
2024/01/29 10:08:57;;;;;;;;;37.50;32.00;;;;;-143.90;100.00;77626.97;4847173;28;102361;-72
2024/01/29 10:11:24;;;;;;;;;22.75;21.00;;;;;-143.90;100.00;77608.34;4835797;28;104064;-72
2024/01/29 10:13:58;;;;;;;;;41.50;30.75;;;;;-143.90;100.00;77598.00;4846223;28;102362;-72
2024/01/29 10:16:27;;;;;;;;;22.25;20.00;;;;;-143.90;100.00;77583.53;4845115;28;102671;-72
2024/01/29 10:18:57;;;;;;;;;31.75;26.75;;;;;-143.90;100.00;77575.25;4850730;28;101933;-72
2024/01/29 10:21:24;;;;;;;;;34.00;24.50;;;;;-143.90;100.00;77562.84;4826968;28;108818;-73
2024/01/29 10:23:58;;;;;;;;;33.50;25.00;;;;;-143.90;100.00;77544.22;4841069;28;102075;-72
2024/01/29 10:26:26;;;;;;;;;28.50;23.75;;;;;-143.90;100.00;77525.59;4843706;28;104412;-74
2024/01/29 10:29:03;;;;;;;;;32.50;21.50;;;;;-143.90;100.00;77523.53;4848685;28;102371;-73
2024/01/29 10:31:31;;;;;;;;;32.00;23.00;;;;;-143.90;100.00;77517.34;4832824;28;108988;-72
2024/01/29 10:33:59;;;;;;;;;33.75;23.00;;;;;-143.90;100.00;77496.66;4848537;28;102006;-71
2024/01/29 10:36:26;;;;;;;;;24.25;21.25;;;;;-143.90;100.00;77482.16;4848060;28;102398;-72
2024/01/29 10:39:03;;;;;;;;;22.00;19.50;;;;;-143.90;100.00;77480.09;4843207;28;102652;-71
2024/01/29 10:41:32;;;;;;;;;24.00;21.25;;;;;-143.90;100.00;77475.97;4828930;28;104370;-72
2024/01/29 10:44:03;;;;;;;;;37.75;28.75;;;;;-143.90;100.00;77467.69;4844462;28;102485;-71
2024/01/29 10:46:34;;;;;;;;;26.00;21.25;;;;;-143.90;100.00;77459.41;4839133;28;102284;-71